createdAt,value
2023-04-23T00:00:04.237Z,12.70
2023-04-23T00:01:08.614Z,12.80
2023-04-23T00:02:12.892Z,11.70
2023-04-23T00:03:19.213Z,12.20
2023-04-23T00:04:22.975Z,10.70
2023-04-23T00:05:27.844Z,12.60
2023-04-23T00:06:30.474Z,12.00
2023-04-23T00:07:33.774Z,8.10
2023-04-23T00:08:40.915Z,7.40
2023-04-23T00:09:44.805Z,11.60
2023-04-23T00:10:47.485Z,10.20
2023-04-23T00:11:50.454Z,10.55
2023-04-23T00:12:54.811Z,11.91
2023-04-23T00:13:58.255Z,11.90
2023-04-23T00:15:01.395Z,9.40
2023-04-23T00:16:04.600Z,10.40
2023-04-23T00:17:07.203Z,11.20
2023-04-23T00:18:09.482Z,8.10
2023-04-23T00:19:12.138Z,8.50
2023-04-23T00:20:18.657Z,6.50
2023-04-23T00:21:20.828Z,10.30
2023-04-23T00:22:23.315Z,9.80
2023-04-23T00:23:26.161Z,9.50
2023-04-23T00:24:28.644Z,7.64
2023-04-23T00:25:30.928Z,9.70
2023-04-23T00:26:34.189Z,10.20
2023-04-23T00:27:36.788Z,11.00
2023-04-23T00:28:39.612Z,10.64
2023-04-23T00:29:42.742Z,8.30
2023-04-23T00:30:44.929Z,10.90
2023-04-23T00:31:48.454Z,9.30
2023-04-23T00:32:51.692Z,7.20
2023-04-23T00:33:53.985Z,7.80
2023-04-23T00:34:56.507Z,8.20
2023-04-23T00:35:58.872Z,10.80
2023-04-23T00:37:03.087Z,9.70
2023-04-23T00:38:06.093Z,8.90
2023-04-23T00:39:10.774Z,10.10
2023-04-23T00:40:13.799Z,10.50
2023-04-23T00:41:16.038Z,7.30
2023-04-23T00:42:18.650Z,9.60
2023-04-23T00:43:21.030Z,9.40
2023-04-23T00:44:23.747Z,9.30
2023-04-23T00:45:25.964Z,8.30
2023-04-23T00:46:28.492Z,8.40
2023-04-23T00:47:33.364Z,9.64
2023-04-23T00:48:35.899Z,9.10
2023-04-23T00:49:39.041Z,9.10
2023-04-23T00:50:41.817Z,9.20
2023-04-23T00:51:44.055Z,7.50
2023-04-23T00:52:46.572Z,9.00
2023-04-23T00:53:49.451Z,10.00
2023-04-23T00:54:51.746Z,10.09
2023-04-23T00:55:54.470Z,8.10
2023-04-23T00:56:57.495Z,10.60
2023-04-23T00:58:00.383Z,10.00
2023-04-23T00:59:03.021Z,8.60
2023-04-23T01:00:07.726Z,10.00
2023-04-23T01:01:10.582Z,9.80
2023-04-23T01:02:14.154Z,9.70
2023-04-23T01:03:18.956Z,9.40
2023-04-23T01:04:24.192Z,10.00
2023-04-23T01:05:28.803Z,8.30
2023-04-23T01:06:31.503Z,9.82
2023-04-23T01:07:35.131Z,11.30
2023-04-23T01:08:39.192Z,10.00
2023-04-23T01:09:41.619Z,8.50
2023-04-23T01:10:45.270Z,9.64
2023-04-23T01:11:50.329Z,9.80
2023-04-23T01:12:53.218Z,8.30
2023-04-23T01:13:56.644Z,8.55
2023-04-23T01:14:59.822Z,9.40
2023-04-23T01:16:02.577Z,8.80
2023-04-23T01:17:07.369Z,9.27
2023-04-23T01:18:12.348Z,9.80
2023-04-23T01:19:15.382Z,8.70
2023-04-23T01:20:17.768Z,9.90
2023-04-23T01:21:20.687Z,9.70
2023-04-23T01:22:23.181Z,6.55
2023-04-23T01:23:27.765Z,9.60
2023-04-23T01:24:31.257Z,9.20
2023-04-23T01:25:34.894Z,9.80
2023-04-23T01:26:38.707Z,8.70
2023-04-23T01:27:41.221Z,9.30
2023-04-23T01:28:45.118Z,10.20
2023-04-23T01:29:47.668Z,5.10
2023-04-23T01:30:52.278Z,9.10
2023-04-23T01:31:55.202Z,9.20
2023-04-23T01:32:58.819Z,5.80
2023-04-23T01:34:01.576Z,11.00
2023-04-23T01:35:04.992Z,10.18
2023-04-23T01:36:09.057Z,9.50
2023-04-23T01:37:11.861Z,10.70
2023-04-23T01:38:14.472Z,10.70
2023-04-23T01:39:17.212Z,11.10
2023-04-23T01:40:20.545Z,11.60
2023-04-23T01:41:23.334Z,10.40
2023-04-23T01:42:25.711Z,10.40
2023-04-23T01:43:30.783Z,9.50
2023-04-23T01:44:33.342Z,9.60
2023-04-23T01:45:36.155Z,8.60
2023-04-23T01:46:38.770Z,10.45
2023-04-23T01:47:41.524Z,10.10
2023-04-23T01:48:44.092Z,9.90
2023-04-23T01:49:47.643Z,9.20
2023-04-23T01:50:51.955Z,10.18
2023-04-23T01:51:54.016Z,11.10
2023-04-23T01:52:56.538Z,9.90
2023-04-23T01:53:59.169Z,10.00
2023-04-23T01:55:01.558Z,9.60
2023-04-23T01:56:05.425Z,10.50
2023-04-23T01:57:09.700Z,11.10
2023-04-23T01:58:12.366Z,9.10
2023-04-23T01:59:14.995Z,10.90
2023-04-23T02:00:18.193Z,10.00
2023-04-23T02:01:20.577Z,10.60
2023-04-23T02:02:22.972Z,11.30
2023-04-23T02:03:25.340Z,10.40
2023-04-23T02:04:29.897Z,10.00
2023-04-23T02:05:35.196Z,10.70
2023-04-23T02:06:38.243Z,10.50
2023-04-23T02:07:41.606Z,10.90
2023-04-23T02:08:43.976Z,11.60
2023-04-23T02:09:46.223Z,11.90
2023-04-23T02:10:48.946Z,11.60
2023-04-23T02:11:51.296Z,11.00
2023-04-23T02:12:53.638Z,8.40
2023-04-23T02:13:56.060Z,10.40
2023-04-23T02:14:58.332Z,9.10
2023-04-23T02:16:00.683Z,12.20
2023-04-23T02:17:02.976Z,9.90
2023-04-23T02:18:06.561Z,11.60
2023-04-23T02:19:08.951Z,11.80
2023-04-23T02:20:12.643Z,12.10
2023-04-23T02:21:15.332Z,11.10
2023-04-23T02:22:17.867Z,13.80
2023-04-23T02:23:20.103Z,10.70
2023-04-23T02:24:22.995Z,12.00
2023-04-23T02:25:26.735Z,8.90
2023-04-23T02:26:30.392Z,9.90
2023-04-23T02:27:33.456Z,11.90
2023-04-23T02:28:35.871Z,10.30
2023-04-23T02:29:38.204Z,11.50
2023-04-23T02:30:42.718Z,9.10
2023-04-23T02:31:45.132Z,10.10
2023-04-23T02:32:47.470Z,10.60
2023-04-23T02:33:50.662Z,10.60
2023-04-23T02:34:53.146Z,5.00
2023-04-23T02:35:55.400Z,11.00
2023-04-23T02:36:58.137Z,9.30
2023-04-23T02:38:00.697Z,8.90
2023-04-23T02:39:02.803Z,9.00
2023-04-23T02:40:06.586Z,8.60
2023-04-23T02:41:09.641Z,8.60
2023-04-23T02:42:12.785Z,9.30
2023-04-23T02:43:15.345Z,9.50
2023-04-23T02:44:17.676Z,4.80
2023-04-23T02:45:20.723Z,6.90
2023-04-23T02:46:24.990Z,9.70
2023-04-23T02:47:27.348Z,7.80
2023-04-23T02:48:30.196Z,8.90
2023-04-23T02:49:32.795Z,10.00
2023-04-23T02:50:35.585Z,9.55
2023-04-23T02:51:38.120Z,10.00
2023-04-23T02:52:40.763Z,8.30
2023-04-23T02:53:42.982Z,9.20
2023-04-23T02:54:46.119Z,10.10
2023-04-23T02:55:48.513Z,10.00
2023-04-23T02:56:50.872Z,8.80
2023-04-23T02:57:53.487Z,9.60
2023-04-23T02:58:56.613Z,10.10
2023-04-23T02:59:59.093Z,8.60
2023-04-23T03:01:05.741Z,9.10
2023-04-23T03:02:08.271Z,9.50
2023-04-23T03:03:12.728Z,9.00
2023-04-23T03:04:15.591Z,8.30
2023-04-23T03:05:18.084Z,7.91
2023-04-23T03:06:20.527Z,8.30
2023-04-23T03:07:23.005Z,8.60
2023-04-23T03:08:25.801Z,9.10
2023-04-23T03:09:28.511Z,9.09
2023-04-23T03:10:30.938Z,8.50
2023-04-23T03:11:34.092Z,9.00
2023-04-23T03:12:37.681Z,4.70
2023-04-23T03:13:40.843Z,4.70
2023-04-23T03:14:43.757Z,9.27
2023-04-23T03:15:48.171Z,6.64
2023-04-23T03:16:50.770Z,7.50
2023-04-23T03:17:53.290Z,8.10
2023-04-23T03:18:55.881Z,6.40
2023-04-23T03:19:59.111Z,7.10
2023-04-23T03:21:01.883Z,8.73
2023-04-23T03:22:05.196Z,6.40
2023-04-23T03:23:08.688Z,10.20
2023-04-23T03:24:14.570Z,9.00
2023-04-23T03:25:17.036Z,7.80
2023-04-23T03:26:20.302Z,7.20
2023-04-23T03:27:23.066Z,7.40
2023-04-23T03:28:25.862Z,8.30
2023-04-23T03:29:28.758Z,8.82
2023-04-23T03:30:34.606Z,8.60
2023-04-23T03:31:38.119Z,8.70
2023-04-23T03:32:40.786Z,7.70
2023-04-23T03:33:43.203Z,7.50
2023-04-23T03:34:45.723Z,8.20
2023-04-23T03:35:48.147Z,6.50
2023-04-23T03:36:52.514Z,9.10
2023-04-23T03:37:55.035Z,8.80
2023-04-23T03:38:58.135Z,6.50
2023-04-23T03:40:04.880Z,8.70
2023-04-23T03:41:08.485Z,7.90
2023-04-23T03:42:11.132Z,7.70
2023-04-23T03:43:14.129Z,9.64
2023-04-23T03:44:18.420Z,9.40
2023-04-23T03:45:22.142Z,9.80
2023-04-23T03:46:25.088Z,10.73
2023-04-23T03:47:27.845Z,8.55
2023-04-23T03:48:31.129Z,7.00
2023-04-23T03:49:34.175Z,9.10
2023-04-23T03:50:38.371Z,7.10
2023-04-23T03:51:42.457Z,10.50
2023-04-23T03:52:45.104Z,10.00
2023-04-23T03:53:50.074Z,8.60
2023-04-23T03:55:12.570Z,9.80
2023-04-23T03:56:16.981Z,11.20
2023-04-23T03:57:21.460Z,7.80
2023-04-23T03:58:37.578Z,10.20
2023-04-23T03:59:40.203Z,9.10
2023-04-23T04:00:45.080Z,8.90
2023-04-23T04:01:49.028Z,8.90
2023-04-23T04:02:51.635Z,9.10
2023-04-23T04:03:56.565Z,9.00
2023-04-23T04:05:01.472Z,7.50
2023-04-23T04:06:06.019Z,6.50
2023-04-23T04:07:10.583Z,9.20
2023-04-23T04:08:12.916Z,8.00
2023-04-23T04:09:16.464Z,8.70
2023-04-23T04:10:19.031Z,8.90
2023-04-23T04:11:21.632Z,8.50
2023-04-23T04:12:24.225Z,6.90
2023-04-23T04:13:27.433Z,5.70
2023-04-23T04:14:31.823Z,9.00
2023-04-23T04:15:34.118Z,10.90
2023-04-23T04:16:37.121Z,10.30
2023-04-23T04:17:40.642Z,10.00
2023-04-23T04:18:43.062Z,10.40
2023-04-23T04:19:45.084Z,9.50
2023-04-23T04:20:47.625Z,9.40
2023-04-23T04:23:01.913Z,10.20
2023-04-23T04:24:04.832Z,9.70
2023-04-23T04:25:07.887Z,9.09
2023-04-23T04:26:11.416Z,9.20
2023-04-23T04:27:15.036Z,6.73
2023-04-23T04:28:17.317Z,10.60
2023-04-23T04:29:21.409Z,8.90
2023-04-23T04:30:26.259Z,11.80
2023-04-23T04:31:28.861Z,10.20
2023-04-23T04:32:32.602Z,13.20
2023-04-23T04:33:35.495Z,12.60
2023-04-23T04:34:38.816Z,12.45
2023-04-23T04:35:42.503Z,12.00
2023-04-23T04:36:45.483Z,10.00
2023-04-23T04:37:49.164Z,11.00
2023-04-23T04:38:51.549Z,10.30
2023-04-23T04:39:54.002Z,10.90
2023-04-23T04:40:58.710Z,12.50
2023-04-23T04:42:02.828Z,10.18
2023-04-23T04:43:05.703Z,10.80
2023-04-23T04:44:08.176Z,10.73
2023-04-23T04:45:11.515Z,10.40
2023-04-23T04:46:15.104Z,9.60
2023-04-23T04:47:17.678Z,10.70
2023-04-23T04:48:20.090Z,10.40
2023-04-23T04:49:22.500Z,10.00
2023-04-23T04:50:24.721Z,11.20
2023-04-23T04:51:27.972Z,11.50
2023-04-23T04:52:31.053Z,11.90
2023-04-23T04:53:35.835Z,11.91
2023-04-23T04:54:38.007Z,12.80
2023-04-23T04:55:40.793Z,12.00
2023-04-23T04:56:43.203Z,10.82
2023-04-23T04:57:45.525Z,9.10
2023-04-23T04:58:47.859Z,9.80
2023-04-23T04:59:50.380Z,10.70
2023-04-23T05:00:52.704Z,11.20
2023-04-23T05:01:55.683Z,9.40
2023-04-23T05:02:59.005Z,11.10
2023-04-23T05:04:01.850Z,10.80
2023-04-23T05:05:06.494Z,9.70
2023-04-23T05:06:09.432Z,9.70
2023-04-23T05:07:11.561Z,10.80
2023-04-23T05:08:16.109Z,9.00
2023-04-23T05:09:18.379Z,9.60
2023-04-23T05:10:21.794Z,7.00
2023-04-23T05:11:24.830Z,11.00
2023-04-23T05:12:28.251Z,10.40
2023-04-23T05:13:30.524Z,1.00
2023-04-23T05:14:33.896Z,8.60
2023-04-23T05:15:36.575Z,10.20
2023-04-23T05:16:39.915Z,11.18
2023-04-23T05:17:43.020Z,5.80
2023-04-23T05:18:46.004Z,11.00
2023-04-23T05:19:48.742Z,12.45
2023-04-23T05:20:51.174Z,11.00
2023-04-23T05:21:53.393Z,11.10
2023-04-23T05:22:55.838Z,11.80
2023-04-23T05:23:58.182Z,10.70
2023-04-23T05:25:00.513Z,11.10
2023-04-23T05:26:03.229Z,10.70
2023-04-23T05:27:05.669Z,10.30
2023-04-23T05:28:08.197Z,13.00
2023-04-23T05:29:12.331Z,9.40
2023-04-23T05:30:14.872Z,12.20
2023-04-23T05:31:17.838Z,12.40
2023-04-23T05:32:20.321Z,9.80
2023-04-23T05:33:22.524Z,10.70
2023-04-23T05:34:24.509Z,12.56
2023-04-23T05:35:27.052Z,11.40
2023-04-23T05:36:30.683Z,14.10
2023-04-23T05:37:33.399Z,8.30
2023-04-23T05:38:36.760Z,14.40
2023-04-23T05:39:39.348Z,13.70
2023-04-23T05:40:42.175Z,11.60
2023-04-23T05:41:44.462Z,11.91
2023-04-23T05:42:46.931Z,13.30
2023-04-23T05:43:49.020Z,12.90
2023-04-23T05:44:51.458Z,13.30
2023-04-23T05:45:54.218Z,14.20
2023-04-23T05:46:56.560Z,16.73
2023-04-23T05:48:00.516Z,14.40
2023-04-23T05:49:02.912Z,15.80
2023-04-23T05:50:06.843Z,14.00
2023-04-23T05:51:10.381Z,15.60
2023-04-23T05:52:14.711Z,17.10
2023-04-23T05:53:17.068Z,15.10
2023-04-23T05:54:20.340Z,14.90
2023-04-23T05:55:23.937Z,17.90
2023-04-23T05:56:26.294Z,15.00
2023-04-23T05:57:28.601Z,19.90
2023-04-23T05:58:30.727Z,15.20
2023-04-23T05:59:37.658Z,20.10
2023-04-23T06:00:41.377Z,19.10
2023-04-23T06:01:43.802Z,14.50
2023-04-23T06:02:47.181Z,16.80
2023-04-23T06:03:49.704Z,19.50
2023-04-23T06:04:52.600Z,17.20
2023-04-23T06:05:55.697Z,22.20
2023-04-23T06:06:58.037Z,18.50
2023-04-23T06:08:01.471Z,13.20
2023-04-23T06:09:04.024Z,15.10
2023-04-23T06:10:07.976Z,19.91
2023-04-23T06:11:10.368Z,15.50
2023-04-23T06:12:14.019Z,16.60
2023-04-23T06:13:16.506Z,15.90
2023-04-23T06:14:18.837Z,11.60
2023-04-23T06:15:23.312Z,13.10
2023-04-23T06:16:25.735Z,13.10
2023-04-23T06:17:27.992Z,12.40
2023-04-23T06:18:30.601Z,13.30
2023-04-23T06:19:32.839Z,13.40
2023-04-23T06:20:35.459Z,9.80
2023-04-23T06:21:37.972Z,12.00
2023-04-23T06:22:40.421Z,12.40
2023-04-23T06:23:43.008Z,12.80
2023-04-23T06:24:45.321Z,12.60
2023-04-23T06:25:48.047Z,12.10
2023-04-23T06:26:51.584Z,10.91
2023-04-23T06:27:54.540Z,10.90
2023-04-23T06:28:59.019Z,0.80
2023-04-23T06:30:07.115Z,13.10
2023-04-23T06:31:10.243Z,10.00
2023-04-23T06:32:12.702Z,13.60
2023-04-23T06:33:15.022Z,11.90
2023-04-23T06:34:17.036Z,10.20
2023-04-23T06:35:19.107Z,10.33
2023-04-23T06:36:21.427Z,11.50
2023-04-23T06:37:29.155Z,12.30
2023-04-23T06:38:30.504Z,10.60
2023-04-23T06:39:33.134Z,10.00
2023-04-23T06:40:35.648Z,10.09
2023-04-23T06:41:39.056Z,9.30
2023-04-23T06:42:47.111Z,10.80
2023-04-23T06:43:54.660Z,9.40
2023-04-23T06:45:00.923Z,11.10
2023-04-23T06:46:03.404Z,11.80
2023-04-23T06:47:05.677Z,8.80
2023-04-23T06:48:11.003Z,9.90
2023-04-23T06:49:13.388Z,10.80
2023-04-23T06:50:15.662Z,11.20
2023-04-23T06:51:17.986Z,11.70
2023-04-23T06:52:20.204Z,10.70
2023-04-23T06:53:24.465Z,10.50
2023-04-23T06:54:26.772Z,11.10
2023-04-23T06:55:29.057Z,10.40
2023-04-23T06:56:31.665Z,12.20
2023-04-23T06:57:34.015Z,12.60
2023-04-23T06:58:36.948Z,12.70
2023-04-23T06:59:40.916Z,12.50
2023-04-23T07:00:44.041Z,10.80
2023-04-23T07:01:46.943Z,12.00
2023-04-23T07:02:49.338Z,11.30
2023-04-23T07:03:54.801Z,11.20
2023-04-23T07:04:57.227Z,10.30
2023-04-23T07:05:59.557Z,13.00
2023-04-23T07:07:01.910Z,13.40
2023-04-23T07:08:04.152Z,11.40
2023-04-23T07:09:08.573Z,12.80
2023-04-23T07:10:12.062Z,11.50
2023-04-23T07:11:15.140Z,10.60
2023-04-23T07:12:17.430Z,12.40
2023-04-23T07:13:19.812Z,14.60
2023-04-23T07:14:21.993Z,11.30
2023-04-23T07:15:24.290Z,10.80
2023-04-23T07:16:29.688Z,10.70
2023-04-23T07:17:32.736Z,11.10
2023-04-23T07:18:35.175Z,11.00
2023-04-23T07:19:38.000Z,11.20
2023-04-23T07:20:40.860Z,12.45
2023-04-23T07:21:44.392Z,11.60
2023-04-23T07:22:47.462Z,10.60
2023-04-23T07:23:50.488Z,13.40
2023-04-23T07:24:52.881Z,11.40
2023-04-23T07:25:55.109Z,13.30
2023-04-23T07:26:59.190Z,14.30
2023-04-23T07:28:01.595Z,15.50
2023-04-23T07:29:06.940Z,10.70
2023-04-23T07:30:10.289Z,13.00
2023-04-23T07:31:12.767Z,10.73
2023-04-23T07:32:14.903Z,15.40
2023-04-23T07:33:17.629Z,12.90
2023-04-23T07:34:20.069Z,13.70
2023-04-23T07:35:22.403Z,10.70
2023-04-23T07:36:25.375Z,13.10
2023-04-23T07:37:28.277Z,12.82
2023-04-23T07:38:30.535Z,9.36
2023-04-23T07:39:33.561Z,14.30
2023-04-23T07:40:36.559Z,11.90
2023-04-23T07:41:39.205Z,11.27
2023-04-23T07:42:41.519Z,14.70
2023-04-23T07:43:43.863Z,13.60
2023-04-23T07:44:47.323Z,12.90
2023-04-23T07:45:49.720Z,11.50
2023-04-23T07:46:52.376Z,11.10
2023-04-23T07:47:54.916Z,12.10
2023-04-23T07:48:57.776Z,14.30
2023-04-23T07:50:00.657Z,11.27
2023-04-23T07:51:03.223Z,12.90
2023-04-23T07:52:05.664Z,10.70
2023-04-23T07:53:09.094Z,14.40
2023-04-23T07:54:11.939Z,11.70
2023-04-23T07:55:15.002Z,10.09
2023-04-23T07:56:17.956Z,11.10
2023-04-23T07:57:20.724Z,10.00
2023-04-23T07:58:24.738Z,10.18
2023-04-23T07:59:27.549Z,10.90
2023-04-23T08:00:30.295Z,8.36
2023-04-23T08:01:33.720Z,8.70
2023-04-23T08:02:36.843Z,8.10
2023-04-23T08:03:40.646Z,7.90
2023-04-23T08:04:43.333Z,6.80
2023-04-23T08:05:45.889Z,6.00
2023-04-23T08:06:48.282Z,7.20
2023-04-23T08:07:50.613Z,9.50
2023-04-23T08:08:54.821Z,9.20
2023-04-23T08:09:59.458Z,8.10
2023-04-23T08:11:03.655Z,7.60
2023-04-23T08:12:05.897Z,7.20
2023-04-23T08:13:08.083Z,6.80
2023-04-23T08:14:11.223Z,8.20
2023-04-23T08:15:13.988Z,7.60
2023-04-23T08:16:16.794Z,6.50
2023-04-23T08:17:19.092Z,8.10
2023-04-23T08:18:21.235Z,7.50
2023-04-23T08:19:23.339Z,9.20
2023-04-23T08:20:26.083Z,8.00
2023-04-23T08:21:29.109Z,7.30
2023-04-23T08:22:31.815Z,8.10
2023-04-23T08:23:34.131Z,6.90
2023-04-23T08:24:36.365Z,5.70
2023-04-23T08:25:38.600Z,6.00
2023-04-23T08:26:40.748Z,6.40
2023-04-23T08:27:43.284Z,6.80
2023-04-23T08:28:46.307Z,5.70
2023-04-23T08:29:48.686Z,5.80
2023-04-23T08:30:51.045Z,4.80
2023-04-23T08:31:53.971Z,6.20
2023-04-23T08:32:58.029Z,4.73
2023-04-23T08:34:00.812Z,5.00
2023-04-23T08:35:04.107Z,5.00
2023-04-23T08:36:07.007Z,5.80
2023-04-23T08:37:19.664Z,8.18
2023-04-23T08:38:15.280Z,6.00
2023-04-23T08:39:17.938Z,6.70
2023-04-23T08:40:21.575Z,6.82
2023-04-23T08:41:27.670Z,6.70
2023-04-23T08:42:39.464Z,6.00
2023-04-23T08:44:03.441Z,3.10
2023-04-23T08:45:06.821Z,6.10
2023-04-23T08:46:12.697Z,5.40
2023-04-23T08:47:17.808Z,4.70
2023-04-23T08:48:21.288Z,6.60
2023-04-23T08:49:26.159Z,6.70
2023-04-23T08:50:34.734Z,5.70
2023-04-23T08:51:41.993Z,6.30
2023-04-23T08:52:56.461Z,6.70
2023-04-23T08:54:02.938Z,6.90
2023-04-23T08:55:11.088Z,6.90
2023-04-23T08:56:14.177Z,7.60
2023-04-23T08:57:17.517Z,5.70
2023-04-23T08:58:28.268Z,6.80
2023-04-23T08:59:35.593Z,6.70
2023-04-23T09:02:23.420Z,7.20
2023-04-23T09:03:28.829Z,5.70
2023-04-23T09:04:35.033Z,3.80
2023-04-23T09:05:42.201Z,3.70
2023-04-23T09:06:51.779Z,3.80
2023-04-23T09:07:55.332Z,5.80
2023-04-23T09:09:02.425Z,5.10
2023-04-23T09:10:10.082Z,4.90
2023-04-23T09:11:13.060Z,4.20
2023-04-23T09:12:16.109Z,5.70
2023-04-23T09:13:18.466Z,4.80
2023-04-23T09:14:24.361Z,6.60
2023-04-23T09:15:26.839Z,5.20
2023-04-23T09:16:29.614Z,5.90
2023-04-23T09:17:33.637Z,5.09
2023-04-23T09:18:37.087Z,5.70
2023-04-23T09:19:40.530Z,3.20
2023-04-23T09:20:44.443Z,3.80
2023-04-23T09:21:48.053Z,5.00
2023-04-23T09:22:54.679Z,3.70
2023-04-23T09:23:57.359Z,5.00
2023-04-23T09:25:02.646Z,4.80
2023-04-23T09:26:08.343Z,4.60
2023-04-23T09:27:11.438Z,5.00
2023-04-23T09:28:15.088Z,5.00
2023-04-23T09:29:22.717Z,4.00
2023-04-23T09:30:27.021Z,6.40
2023-04-23T09:31:30.082Z,6.60
2023-04-23T09:32:34.872Z,4.40
2023-04-23T09:33:38.204Z,2.20
2023-04-23T09:34:40.679Z,5.40
2023-04-23T09:35:42.916Z,4.80
2023-04-23T09:36:48.704Z,4.40
2023-04-23T09:37:52.724Z,2.90
2023-04-23T09:38:58.200Z,4.20
2023-04-23T09:40:08.991Z,4.50
2023-04-23T09:41:26.630Z,3.60
2023-04-23T09:42:32.792Z,3.90
2023-04-23T09:43:36.507Z,4.20
2023-04-23T09:44:38.659Z,3.80
2023-04-23T09:45:49.894Z,3.90
2023-04-23T09:46:52.704Z,3.70
2023-04-23T09:47:57.353Z,4.00
2023-04-23T09:49:03.574Z,4.60
2023-04-23T09:50:10.393Z,4.40
2023-04-23T09:51:16.192Z,3.30
2023-04-23T09:52:18.967Z,5.00
2023-04-23T09:53:21.470Z,6.82
2023-04-23T09:54:26.877Z,5.20
2023-04-23T09:55:38.215Z,4.60
2023-04-23T09:56:42.533Z,5.20
2023-04-23T09:57:47.080Z,5.80
2023-04-23T09:58:49.951Z,4.20
2023-04-23T10:00:00.203Z,4.90
2023-04-23T10:01:09.451Z,4.00
2023-04-23T10:02:11.560Z,4.00
2023-04-23T10:03:15.581Z,4.70
2023-04-23T10:04:22.341Z,4.10
2023-04-23T10:05:34.178Z,4.10
2023-04-23T10:06:44.344Z,4.40
2023-04-23T10:07:39.266Z,5.90
2023-04-23T10:08:43.323Z,4.70
2023-04-23T10:09:46.943Z,4.20
2023-04-23T10:11:03.102Z,4.20
2023-04-23T10:13:09.241Z,5.30
2023-04-23T10:14:12.990Z,4.10
2023-04-23T10:15:15.181Z,3.70
2023-04-23T10:16:24.287Z,3.90
2023-04-23T10:17:24.325Z,3.90
2023-04-23T10:18:27.832Z,4.50
2023-04-23T10:19:32.089Z,3.90
2023-04-23T10:20:35.764Z,4.00
2023-04-23T10:21:46.511Z,4.40
2023-04-23T10:22:45.997Z,5.10
2023-04-23T10:23:50.871Z,2.00
2023-04-23T10:24:56.695Z,4.60
2023-04-23T10:26:00.904Z,4.20
2023-04-23T10:27:05.642Z,4.40
2023-04-23T10:28:11.711Z,4.30
2023-04-23T10:29:16.333Z,2.10
2023-04-23T10:30:20.594Z,4.60
2023-04-23T10:31:24.172Z,5.50
2023-04-23T10:32:30.133Z,2.10
2023-04-23T10:34:36.277Z,3.90
2023-04-23T10:35:39.397Z,4.45
2023-04-23T10:36:42.039Z,3.80
2023-04-23T10:37:46.389Z,4.00
2023-04-23T10:38:57.836Z,3.20
2023-04-23T10:39:57.338Z,5.20
2023-04-23T10:41:02.027Z,5.30
2023-04-23T10:42:05.453Z,0.70
2023-04-23T10:43:08.506Z,3.80
2023-04-23T10:44:16.349Z,4.60
2023-04-23T10:45:24.728Z,4.90
2023-04-23T10:46:30.591Z,3.50
2023-04-23T10:47:33.819Z,4.10
2023-04-23T10:50:02.838Z,4.50
2023-04-23T10:51:14.589Z,4.00
2023-04-23T10:52:21.460Z,5.40
2023-04-23T10:53:21.371Z,3.80
2023-04-23T10:54:27.220Z,4.80
2023-04-23T10:55:31.754Z,4.70
2023-04-23T10:56:34.729Z,3.90
2023-04-23T10:58:01.183Z,3.20
2023-04-23T10:59:08.582Z,3.80
2023-04-23T11:00:14.113Z,3.70
2023-04-23T11:01:18.326Z,4.30
2023-04-23T11:02:28.120Z,3.30
2023-04-23T11:03:45.068Z,2.90
2023-04-23T11:04:58.017Z,3.00
2023-04-23T11:06:05.672Z,3.50
2023-04-23T11:07:13.038Z,4.30
2023-04-23T11:08:19.875Z,3.60
2023-04-23T11:09:42.026Z,3.80
2023-04-23T11:10:57.937Z,2.90
2023-04-23T11:12:01.816Z,5.00
2023-04-23T11:13:26.417Z,4.00
2023-04-23T11:14:44.566Z,4.30
2023-04-23T11:15:46.946Z,3.80
2023-04-23T11:16:51.640Z,3.90
2023-04-23T11:17:57.828Z,2.80
2023-04-23T11:19:06.927Z,3.70
2023-04-23T11:20:20.700Z,4.70
2023-04-23T11:21:26.738Z,3.10
2023-04-23T11:22:52.547Z,2.00
2023-04-23T11:23:55.196Z,2.70
2023-04-23T11:24:58.388Z,2.70
2023-04-23T11:26:02.410Z,2.90
2023-04-23T11:27:07.403Z,3.60
2023-04-23T11:28:10.119Z,3.60
2023-04-23T11:29:15.989Z,3.20
2023-04-23T11:30:21.473Z,2.80
2023-04-23T11:31:24.894Z,3.00
2023-04-23T11:32:28.577Z,2.90
2023-04-23T11:33:31.736Z,3.80
2023-04-23T11:34:35.138Z,4.70
2023-04-23T11:35:41.145Z,6.20
2023-04-23T11:36:44.528Z,5.80
2023-04-23T11:37:48.303Z,3.20
2023-04-23T11:38:52.811Z,2.60
2023-04-23T11:39:56.337Z,4.50
2023-04-23T11:41:04.712Z,4.00
2023-04-23T11:42:13.600Z,5.10
2023-04-23T11:43:21.780Z,6.00
2023-04-23T11:44:24.275Z,5.40
2023-04-23T11:45:28.752Z,5.70
2023-04-23T11:46:31.243Z,3.50
2023-04-23T11:47:34.965Z,3.30
2023-04-23T11:48:37.588Z,3.90
2023-04-23T11:49:43.622Z,2.50
2023-04-23T11:50:47.085Z,3.50
2023-04-23T11:51:50.518Z,4.27
2023-04-23T11:52:53.662Z,3.20
2023-04-23T11:54:04.303Z,3.00
2023-04-23T11:55:07.255Z,3.70
2023-04-23T11:56:10.390Z,3.50
2023-04-23T11:57:14.072Z,3.40
2023-04-23T11:58:19.141Z,3.00
2023-04-23T11:59:22.399Z,2.80
2023-04-23T12:00:26.962Z,3.30
2023-04-23T12:01:47.496Z,2.80
2023-04-23T12:03:00.156Z,2.60
2023-04-23T12:04:12.756Z,3.00
2023-04-23T12:05:15.486Z,2.70
2023-04-23T12:06:20.328Z,3.90
2023-04-23T12:07:27.078Z,2.90
2023-04-23T12:08:35.294Z,3.30
2023-04-23T12:09:38.597Z,3.70
2023-04-23T12:10:47.571Z,2.50
2023-04-23T12:11:52.097Z,3.50
2023-04-23T12:12:55.562Z,3.40
2023-04-23T12:13:58.506Z,3.30
2023-04-23T12:15:08.047Z,3.10
2023-04-23T12:16:11.605Z,3.70
2023-04-23T12:17:14.155Z,3.36
2023-04-23T12:18:19.325Z,3.80
2023-04-23T12:19:30.291Z,4.00
2023-04-23T12:20:32.617Z,3.80
2023-04-23T12:21:37.668Z,3.30
2023-04-23T12:22:39.951Z,3.60
2023-04-23T12:23:44.084Z,3.50
2023-04-23T12:24:50.204Z,2.70
2023-04-23T12:25:54.800Z,2.70
2023-04-23T12:27:03.873Z,3.00
2023-04-23T12:28:07.966Z,3.60
2023-04-23T12:29:13.367Z,3.40
2023-04-23T12:30:16.630Z,3.30
2023-04-23T12:31:23.288Z,4.30
2023-04-23T12:32:26.973Z,2.80
2023-04-23T12:33:30.312Z,1.80
2023-04-23T12:34:32.775Z,3.50
2023-04-23T12:35:42.890Z,3.70
2023-04-23T12:36:51.210Z,2.60
2023-04-23T12:37:54.603Z,3.30
2023-04-23T12:39:26.532Z,3.30
2023-04-23T12:40:29.077Z,3.40
2023-04-23T12:41:33.512Z,3.10
2023-04-23T12:42:37.803Z,2.20
2023-04-23T12:43:40.135Z,2.70
2023-04-23T12:44:42.306Z,3.90
2023-04-23T12:45:45.230Z,3.40
2023-04-23T12:46:57.851Z,2.60
2023-04-23T12:48:00.710Z,2.30
2023-04-23T12:49:03.181Z,4.50
2023-04-23T12:50:10.596Z,2.70
2023-04-23T12:51:14.139Z,4.50
2023-04-23T12:52:19.334Z,4.18
2023-04-23T12:53:21.634Z,4.40
2023-04-23T12:55:42.852Z,3.00
2023-04-23T12:56:45.399Z,3.00
2023-04-23T12:57:49.196Z,1.80
2023-04-23T12:58:52.323Z,2.50
2023-04-23T12:59:54.925Z,4.40
2023-04-23T13:00:58.694Z,3.00
2023-04-23T13:02:01.429Z,2.20
2023-04-23T13:03:06.738Z,2.45
2023-04-23T13:04:11.437Z,2.30
2023-04-23T13:05:13.895Z,3.80
2023-04-23T13:06:17.526Z,2.40
2023-04-23T13:07:21.100Z,2.50
2023-04-23T13:08:23.575Z,2.80
2023-04-23T13:09:27.275Z,4.20
2023-04-23T13:10:30.644Z,3.60
2023-04-23T13:11:33.004Z,2.40
2023-04-23T13:12:36.620Z,2.70
2023-04-23T13:13:39.441Z,3.20
2023-04-23T13:14:41.730Z,1.73
2023-04-23T13:15:45.139Z,3.20
2023-04-23T13:16:48.723Z,1.70
2023-04-23T13:17:52.139Z,2.70
2023-04-23T13:18:55.064Z,2.60
2023-04-23T13:19:58.524Z,3.30
2023-04-23T13:21:02.165Z,3.00
2023-04-23T13:22:04.798Z,2.50
2023-04-23T13:23:09.718Z,1.20
2023-04-23T13:24:12.318Z,2.80
2023-04-23T13:25:15.060Z,2.60
2023-04-23T13:26:17.905Z,2.00
2023-04-23T13:27:21.499Z,2.20
2023-04-23T13:28:23.870Z,2.27
2023-04-23T13:29:27.362Z,2.80
2023-04-23T13:30:29.848Z,2.50
2023-04-23T13:31:32.406Z,3.10
2023-04-23T13:32:34.683Z,2.80
2023-04-23T13:33:38.789Z,2.80
2023-04-23T13:34:42.374Z,2.50
2023-04-23T13:35:45.464Z,1.64
2023-04-23T13:36:48.756Z,3.00
2023-04-23T13:37:51.240Z,2.90
2023-04-23T13:38:54.501Z,2.30
2023-04-23T13:39:57.488Z,2.10
2023-04-23T13:41:00.143Z,2.00
2023-04-23T13:42:09.381Z,1.80
2023-04-23T13:43:07.931Z,2.50
2023-04-23T13:44:10.506Z,2.30
2023-04-23T13:45:14.921Z,1.80
2023-04-23T13:46:19.004Z,2.70
2023-04-23T13:47:21.484Z,2.70
2023-04-23T13:48:25.690Z,2.70
2023-04-23T13:49:27.987Z,2.40
2023-04-23T13:50:30.510Z,2.00
2023-04-23T13:51:35.191Z,2.40
2023-04-23T13:52:39.238Z,2.30
2023-04-23T13:53:42.799Z,1.80
2023-04-23T13:54:47.311Z,1.80
2023-04-23T13:55:49.701Z,1.80
2023-04-23T13:56:52.121Z,3.40
2023-04-23T13:57:56.240Z,2.10
2023-04-23T13:59:18.177Z,3.00
2023-04-23T14:00:07.986Z,2.70
2023-04-23T14:01:12.690Z,3.00
2023-04-23T14:02:15.352Z,2.00
2023-04-23T14:03:19.705Z,1.91
2023-04-23T14:04:23.546Z,2.30
2023-04-23T14:05:25.892Z,1.80
2023-04-23T14:06:28.230Z,2.50
2023-04-23T14:07:30.461Z,1.40
2023-04-23T14:08:32.705Z,2.00
2023-04-23T14:09:35.465Z,1.80